Dauntless Aviation
Greetings, Guest! To participate, [sign up for a free account] or [log in]
Airports Europe United Kingdom
EGLC
LCY

London City

London, UNITED KINGDOM

Airport Info
Edit

Location

Latitude / Longitude: 51°30'18"N / 0°3'12"E
  51°30.3'N / 0°3.21'E
  51.5050 / 0.0535

Nearby radio navigation aids

LCY CITY NDB on field.

Runway Information

Runway 10 /28

Dimensions: 4948 x 98 ft.
Surface: ASP
 
Runway 10
Runway 28
Latitude: 51.505528 51.504922
Longitude: 0.045753 0.064953
Elevation: 16 ft. 16 ft.
Runway true heading: 91.1 271.1
 

Instrument Procedures

  Control Zone and Control Area Chart
  Aircraft Parking/Docking Chart
  Aerodrome Chart

STARs (Standard Terminal Arrivals)

  STAR via SPEAR (Northwest)
  STAR via ALKIN (South)
  STAR via SPEAR (East)
  STAR via SPEAR (West)
  STAR via SPEAR (Alternate Holding at LOGAN and ALKIN)

IAPs (Instrument Approach Procedures)

  LOC/DME/NDB (L) Rwy 27 (Aircraft CAT A/B/C)
  Visual Approach Profile Rwy 27
  ILS (5.5°GP) /DME/NDB (L) Rwy 27 (Aircraft CAT A/B/C)
  Visual Approach Profile Rwy 09
  LOC/DME/NDB (L) Rwy 09
  ATC Surveillance Minimum Altitude Chart
  ILS (5.5°GP) /DME/NDB (L) Rwy 09 (Aircraft CAT A/B/C)

Departure Procedures

  SID DOVER/LYDD
  SID CLACTON
  SID SOUTHAMPTON
  SID BROOKMANS PARK/COMPTON
Satellite photo at:
Airport distance calculator
From:
Weather Reports

METAR

EGLC

EGLC 231650Z AUTO 30020KT 9999 RA BKN045/// 16/08 Q1016
EGKB
11.4nm S
EGKB 231650Z 27010KT 240V300 9999 VCSH SCT050 16/04 Q1016
EGWU
17.8nm W
EGWU 231650Z 32007KT 9999 FEW045 SCT070 13/09 Q1016 NOSIG
EGLL
18.9nm SW
EGLL 231650Z 32007KT 290V350 9999 FEW048CB 15/08 Q1016 TEMPO SHRA
EGSS
23.5nm N
EGSS 231650Z 30008KT 260V330 9999 FEW014 SCT048 16/07 Q1015
EGKK
23.8nm S
EGKK 231650Z 30008KT CAVOK 17/05 Q1016

TAF

EGKB
11.4nm S
TAF EGKB 231358Z 2315/2319 28008KT 9999 SCT035 PROB30 TEMPO 2315/2319 7000 SHRA
EGWU
17.8nm W
TAF EGWU 231332Z 2315/2409 29010KT 9999 SCT045
EGLL
18.9nm SW
TAF EGLL 231058Z 2312/2418 28005KT 9999 SCT045 PROB30 TEMPO 2313/2318 8000 SHRA PROB30 2403/2407 6000 BECMG 2415/2418 20010KT
EGSS
23.5nm N
TAF EGSS 231057Z 2312/2418 29010KT 9999 SCT035 PROB30 TEMPO 2312/2321 7000 SHRA BECMG 2412/2415 22005KT
EGKK
23.8nm S
TAF EGKK 231058Z 2312/2418 29008KT 9999 SCT030 PROB30 TEMPO 2313/2318 7000 SHRA PROB30 2403/2408 8000 BECMG 2415/2418 21010KT
EGMC
24.4nm NE
TAF EGMC 231358Z 2315/2324 28011KT 9999 SCT035 PROB30 TEMPO 2315/2320 7000 SHRA
Safelog

 

Dauntless Aviation

© 2007-2014 Dauntless Aviation, all rights reserved
Information provided via PilotNav comes from a variety of official and unofficial data sources. As errors are possible, do not use PilotNav for primary flight planning purposes. Verify any information that you receive via PilotNav with current and canonical charts and other official documents. The material in this database is subject to database copyrights held by Dauntless Aviation and may not be copied without the express permission of Dauntless Aviation - licenses for use of part of all of this data are available for purchase; enquire via the Dauntless Aviation helpdesk. A number of mechanisms and markers exist in the database to protect against and identify infringement / copyright. Automated queries against this website are stictly prohibited, and all activity is logged and analyzed.